sensor_id;sensor_type;location;lat;lon;timestamp;P1;durP1;ratioP1;P2;durP2;ratioP2
42146;SDS011;27815;43.410;11.852;2023-05-10T00:00:14;8.23;;;6.18;;
42146;SDS011;27815;43.410;11.852;2023-05-10T00:04:18;8.20;;;5.60;;
42146;SDS011;27815;43.410;11.852;2023-05-10T00:08:21;8.68;;;5.88;;
42146;SDS011;27815;43.410;11.852;2023-05-10T00:12:24;8.32;;;6.43;;
42146;SDS011;27815;43.410;11.852;2023-05-10T00:16:27;9.85;;;7.13;;
42146;SDS011;27815;43.410;11.852;2023-05-10T00:20:30;9.80;;;7.65;;
42146;SDS011;27815;43.410;11.852;2023-05-10T00:24:33;10.73;;;7.88;;
42146;SDS011;27815;43.410;11.852;2023-05-10T00:28:36;9.65;;;7.22;;
42146;SDS011;27815;43.410;11.852;2023-05-10T00:32:39;9.75;;;6.93;;
42146;SDS011;27815;43.410;11.852;2023-05-10T00:36:42;10.30;;;6.28;;
42146;SDS011;27815;43.410;11.852;2023-05-10T00:40:45;10.20;;;6.68;;
42146;SDS011;27815;43.410;11.852;2023-05-10T00:44:56;9.02;;;6.72;;
42146;SDS011;27815;43.410;11.852;2023-05-10T00:48:59;9.15;;;6.88;;
42146;SDS011;27815;43.410;11.852;2023-05-10T00:53:04;8.85;;;6.45;;
42146;SDS011;27815;43.410;11.852;2023-05-10T00:57:08;8.77;;;7.05;;
42146;SDS011;27815;43.410;11.852;2023-05-10T01:01:11;13.90;;;8.25;;
42146;SDS011;27815;43.410;11.852;2023-05-10T01:05:15;10.40;;;6.15;;
42146;SDS011;27815;43.410;11.852;2023-05-10T01:09:18;7.82;;;5.88;;
42146;SDS011;27815;43.410;11.852;2023-05-10T01:13:29;8.32;;;5.78;;
42146;SDS011;27815;43.410;11.852;2023-05-10T01:17:35;7.88;;;5.78;;
42146;SDS011;27815;43.410;11.852;2023-05-10T01:40:17;9.23;;;6.60;;
42146;SDS011;27815;43.410;11.852;2023-05-10T01:44:37;10.32;;;6.90;;
42146;SDS011;27815;43.410;11.852;2023-05-10T01:48:48;10.05;;;7.10;;
42146;SDS011;27815;43.410;11.852;2023-05-10T01:52:57;10.15;;;7.15;;
42146;SDS011;27815;43.410;11.852;2023-05-10T01:57:08;9.40;;;7.03;;
42146;SDS011;27815;43.410;11.852;2023-05-10T02:01:15;10.75;;;7.55;;
42146;SDS011;27815;43.410;11.852;2023-05-10T02:05:21;9.80;;;6.60;;
42146;SDS011;27815;43.410;11.852;2023-05-10T02:09:25;9.93;;;7.40;;
42146;SDS011;27815;43.410;11.852;2023-05-10T02:13:33;10.52;;;7.63;;
42146;SDS011;27815;43.410;11.852;2023-05-10T02:17:38;10.10;;;7.72;;
42146;SDS011;27815;43.410;11.852;2023-05-10T02:21:44;9.90;;;7.32;;
42146;SDS011;27815;43.410;11.852;2023-05-10T02:25:48;8.90;;;6.72;;
42146;SDS011;27815;43.410;11.852;2023-05-10T02:29:54;9.60;;;7.43;;
42146;SDS011;27815;43.410;11.852;2023-05-10T02:33:59;10.25;;;6.95;;
42146;SDS011;27815;43.410;11.852;2023-05-10T02:38:04;11.23;;;7.60;;
42146;SDS011;27815;43.410;11.852;2023-05-10T02:42:11;13.02;;;7.85;;
42146;SDS011;27815;43.410;11.852;2023-05-10T02:46:25;10.32;;;7.13;;
42146;SDS011;27815;43.410;11.852;2023-05-10T02:50:30;10.57;;;7.63;;
42146;SDS011;27815;43.410;11.852;2023-05-10T02:54:45;10.18;;;7.13;;
42146;SDS011;27815;43.410;11.852;2023-05-10T02:58:52;10.98;;;6.97;;
42146;SDS011;27815;43.410;11.852;2023-05-10T03:02:55;11.38;;;7.45;;
42146;SDS011;27815;43.410;11.852;2023-05-10T03:06:59;11.68;;;8.02;;
42146;SDS011;27815;43.410;11.852;2023-05-10T03:24:07;10.43;;;7.20;;
42146;SDS011;27815;43.410;11.852;2023-05-10T03:28:20;11.95;;;7.90;;
42146;SDS011;27815;43.410;11.852;2023-05-10T03:32:24;10.60;;;7.82;;
42146;SDS011;27815;43.410;11.852;2023-05-10T03:36:32;11.48;;;7.57;;
42146;SDS011;27815;43.410;11.852;2023-05-10T03:40:38;11.10;;;7.30;;
42146;SDS011;27815;43.410;11.852;2023-05-10T03:44:42;12.82;;;8.20;;
42146;SDS011;27815;43.410;11.852;2023-05-10T03:48:45;11.43;;;8.05;;
42146;SDS011;27815;43.410;11.852;2023-05-10T03:52:48;12.07;;;8.13;;
42146;SDS011;27815;43.410;11.852;2023-05-10T03:56:53;11.30;;;7.47;;
42146;SDS011;27815;43.410;11.852;2023-05-10T04:00:57;12.15;;;7.75;;
42146;SDS011;27815;43.410;11.852;2023-05-10T04:05:00;11.75;;;7.88;;
42146;SDS011;27815;43.410;11.852;2023-05-10T04:09:03;11.43;;;7.78;;
42146;SDS011;27815;43.410;11.852;2023-05-10T04:13:06;11.57;;;8.05;;
42146;SDS011;27815;43.410;11.852;2023-05-10T04:17:09;11.88;;;6.78;;
42146;SDS011;27815;43.410;11.852;2023-05-10T04:21:13;10.75;;;7.05;;
42146;SDS011;27815;43.410;11.852;2023-05-10T04:25:17;10.73;;;6.45;;
42146;SDS011;27815;43.410;11.852;2023-05-10T04:29:20;8.68;;;6.10;;
42146;SDS011;27815;43.410;11.852;2023-05-10T04:33:23;9.30;;;6.85;;
42146;SDS011;27815;43.410;11.852;2023-05-10T04:37:26;11.40;;;7.03;;
42146;SDS011;27815;43.410;11.852;2023-05-10T04:41:30;8.88;;;6.72;;
42146;SDS011;27815;43.410;11.852;2023-05-10T04:45:34;12.23;;;7.55;;
42146;SDS011;27815;43.410;11.852;2023-05-10T04:49:37;9.25;;;6.70;;
42146;SDS011;27815;43.410;11.852;2023-05-10T04:53:41;11.15;;;6.80;;
42146;SDS011;27815;43.410;11.852;2023-05-10T04:57:52;11.35;;;7.78;;
42146;SDS011;27815;43.410;11.852;2023-05-10T05:01:57;9.88;;;7.35;;
42146;SDS011;27815;43.410;11.852;2023-05-10T05:06:00;10.13;;;7.68;;
42146;SDS011;27815;43.410;11.852;2023-05-10T05:10:25;12.57;;;8.18;;
42146;SDS011;27815;43.410;11.852;2023-05-10T05:14:34;12.65;;;8.43;;
42146;SDS011;27815;43.410;11.852;2023-05-10T05:18:37;12.45;;;9.13;;
42146;SDS011;27815;43.410;11.852;2023-05-10T05:22:43;13.60;;;9.45;;
42146;SDS011;27815;43.410;11.852;2023-05-10T05:28:46;15.20;;;9.80;;
42146;SDS011;27815;43.410;11.852;2023-05-10T05:32:55;12.52;;;8.55;;
42146;SDS011;27815;43.410;11.852;2023-05-10T05:37:59;15.48;;;10.45;;
42146;SDS011;27815;43.410;11.852;2023-05-10T05:42:07;13.30;;;9.90;;
42146;SDS011;27815;43.410;11.852;2023-05-10T05:46:27;12.07;;;8.85;;
42146;SDS011;27815;43.410;11.852;2023-05-10T05:50:30;14.43;;;10.32;;
42146;SDS011;27815;43.410;11.852;2023-05-10T05:54:33;14.93;;;10.95;;
42146;SDS011;27815;43.410;11.852;2023-05-10T05:58:37;14.55;;;9.70;;
42146;SDS011;27815;43.410;11.852;2023-05-10T06:02:51;11.75;;;8.27;;
42146;SDS011;27815;43.410;11.852;2023-05-10T06:06:54;10.85;;;9.05;;
42146;SDS011;27815;43.410;11.852;2023-05-10T06:10:57;13.27;;;9.70;;
42146;SDS011;27815;43.410;11.852;2023-05-10T06:15:00;10.75;;;7.80;;
42146;SDS011;27815;43.410;11.852;2023-05-10T06:19:05;10.18;;;7.88;;
42146;SDS011;27815;43.410;11.852;2023-05-10T06:23:08;9.27;;;7.65;;
42146;SDS011;27815;43.410;11.852;2023-05-10T06:27:12;10.45;;;7.57;;
42146;SDS011;27815;43.410;11.852;2023-05-10T06:31:15;8.80;;;6.97;;
42146;SDS011;27815;43.410;11.852;2023-05-10T06:35:18;8.57;;;7.25;;
42146;SDS011;27815;43.410;11.852;2023-05-10T06:39:21;9.02;;;6.90;;
42146;SDS011;27815;43.410;11.852;2023-05-10T06:43:27;7.57;;;6.28;;
42146;SDS011;27815;43.410;11.852;2023-05-10T06:47:30;8.85;;;6.93;;
42146;SDS011;27815;43.410;11.852;2023-05-10T06:51:33;10.38;;;7.20;;
42146;SDS011;27815;43.410;11.852;2023-05-10T06:55:39;7.35;;;5.80;;
42146;SDS011;27815;43.410;11.852;2023-05-10T06:59:41;10.38;;;7.13;;
42146;SDS011;27815;43.410;11.852;2023-05-10T07:03:45;8.50;;;6.30;;
42146;SDS011;27815;43.410;11.852;2023-05-10T07:07:50;8.70;;;6.07;;
42146;SDS011;27815;43.410;11.852;2023-05-10T07:12:19;9.40;;;6.90;;
42146;SDS011;27815;43.410;11.852;2023-05-10T07:16:22;10.23;;;6.40;;
42146;SDS011;27815;43.410;11.852;2023-05-10T07:20:26;8.35;;;6.90;;
42146;SDS011;27815;43.410;11.852;2023-05-10T07:24:36;9.55;;;7.43;;
42146;SDS011;27815;43.410;11.852;2023-05-10T07:28:43;8.70;;;6.60;;
42146;SDS011;27815;43.410;11.852;2023-05-10T07:32:47;8.10;;;6.95;;
42146;SDS011;27815;43.410;11.852;2023-05-10T07:36:50;7.30;;;6.60;;
42146;SDS011;27815;43.410;11.852;2023-05-10T07:40:54;8.50;;;6.70;;
42146;SDS011;27815;43.410;11.852;2023-05-10T07:45:10;7.65;;;6.47;;
42146;SDS011;27815;43.410;11.852;2023-05-10T07:49:18;7.60;;;6.82;;
42146;SDS011;27815;43.410;11.852;2023-05-10T07:53:27;8.05;;;7.25;;
42146;SDS011;27815;43.410;11.852;2023-05-10T07:57:43;6.68;;;5.95;;
42146;SDS011;27815;43.410;11.852;2023-05-10T08:01:47;8.43;;;7.63;;
42146;SDS011;27815;43.410;11.852;2023-05-10T08:06:09;7.28;;;6.65;;
42146;SDS011;27815;43.410;11.852;2023-05-10T08:10:41;7.10;;;5.93;;
42146;SDS011;27815;43.410;11.852;2023-05-10T08:14:44;8.23;;;7.43;;
42146;SDS011;27815;43.410;11.852;2023-05-10T08:18:48;7.78;;;6.78;;
42146;SDS011;27815;43.410;11.852;2023-05-10T08:22:59;6.00;;;4.85;;
42146;SDS011;27815;43.410;11.852;2023-05-10T08:27:17;5.43;;;4.55;;
42146;SDS011;27815;43.410;11.852;2023-05-10T08:31:21;6.07;;;5.25;;
42146;SDS011;27815;43.410;11.852;2023-05-10T08:35:44;5.32;;;4.50;;
42146;SDS011;27815;43.410;11.852;2023-05-10T08:40:07;4.85;;;4.38;;
42146;SDS011;27815;43.410;11.852;2023-05-10T08:44:28;4.03;;;3.58;;
42146;SDS011;27815;43.410;11.852;2023-05-10T08:49:06;4.28;;;3.70;;
42146;SDS011;27815;43.410;11.852;2023-05-10T08:53:27;5.53;;;4.03;;
42146;SDS011;27815;43.410;11.852;2023-05-10T08:57:46;4.43;;;3.67;;
42146;SDS011;27815;43.410;11.852;2023-05-10T09:02:20;4.80;;;3.60;;
42146;SDS011;27815;43.410;11.852;2023-05-10T09:06:25;4.68;;;3.55;;
42146;SDS011;27815;43.410;11.852;2023-05-10T09:10:29;5.97;;;3.67;;
42146;SDS011;27815;43.410;11.852;2023-05-10T09:14:34;4.78;;;3.63;;
42146;SDS011;27815;43.410;11.852;2023-05-10T09:18:52;3.80;;;3.42;;
42146;SDS011;27815;43.410;11.852;2023-05-10T09:23:14;5.43;;;3.38;;
42146;SDS011;27815;43.410;11.852;2023-05-10T09:27:32;4.72;;;4.03;;
42146;SDS011;27815;43.410;11.852;2023-05-10T09:31:50;4.70;;;4.10;;
42146;SDS011;27815;43.410;11.852;2023-05-10T09:36:10;5.35;;;4.10;;
42146;SDS011;27815;43.410;11.852;2023-05-10T09:40:42;5.03;;;3.67;;
42146;SDS011;27815;43.410;11.852;2023-05-10T09:45:21;3.78;;;3.28;;
42146;SDS011;27815;43.410;11.852;2023-05-10T09:49:41;3.50;;;2.80;;
42146;SDS011;27815;43.410;11.852;2023-05-10T09:54:11;3.45;;;3.15;;
42146;SDS011;27815;43.410;11.852;2023-05-10T09:58:40;4.32;;;3.03;;
42146;SDS011;27815;43.410;11.852;2023-05-10T10:03:01;3.63;;;3.25;;
42146;SDS011;27815;43.410;11.852;2023-05-10T10:08:04;3.45;;;2.97;;
42146;SDS011;27815;43.410;11.852;2023-05-10T10:12:24;3.35;;;2.80;;
42146;SDS011;27815;43.410;11.852;2023-05-10T10:16:42;3.63;;;3.13;;
42146;SDS011;27815;43.410;11.852;2023-05-10T10:21:06;3.20;;;2.65;;
42146;SDS011;27815;43.410;11.852;2023-05-10T10:34:38;3.58;;;2.70;;
42146;SDS011;27815;43.410;11.852;2023-05-10T10:43:39;4.20;;;3.03;;
42146;SDS011;27815;43.410;11.852;2023-05-10T10:57:33;3.85;;;2.33;;
42146;SDS011;27815;43.410;11.852;2023-05-10T11:01:51;3.60;;;2.15;;
42146;SDS011;27815;43.410;11.852;2023-05-10T11:06:09;3.47;;;2.78;;
42146;SDS011;27815;43.410;11.852;2023-05-10T11:10:27;3.17;;;2.40;;
42146;SDS011;27815;43.410;11.852;2023-05-10T11:14:32;3.10;;;2.33;;
42146;SDS011;27815;43.410;11.852;2023-05-10T11:18:37;3.03;;;2.15;;
42146;SDS011;27815;43.410;11.852;2023-05-10T11:22:49;5.88;;;2.47;;
42146;SDS011;27815;43.410;11.852;2023-05-10T11:27:31;3.58;;;2.42;;
42146;SDS011;27815;43.410;11.852;2023-05-10T11:31:41;5.18;;;2.67;;
42146;SDS011;27815;43.410;11.852;2023-05-10T11:35:58;4.28;;;2.60;;
42146;SDS011;27815;43.410;11.852;2023-05-10T11:40:02;3.25;;;2.38;;
42146;SDS011;27815;43.410;11.852;2023-05-10T11:44:20;3.17;;;2.28;;
42146;SDS011;27815;43.410;11.852;2023-05-10T11:48:23;4.53;;;2.17;;
42146;SDS011;27815;43.410;11.852;2023-05-10T11:52:26;3.25;;;2.53;;
42146;SDS011;27815;43.410;11.852;2023-05-10T11:56:29;3.13;;;2.28;;
42146;SDS011;27815;43.410;11.852;2023-05-10T12:00:35;4.05;;;2.45;;
42146;SDS011;27815;43.410;11.852;2023-05-10T12:04:38;3.38;;;2.22;;
42146;SDS011;27815;43.410;11.852;2023-05-10T12:08:45;2.90;;;2.15;;
42146;SDS011;27815;43.410;11.852;2023-05-10T12:12:51;2.83;;;1.92;;
42146;SDS011;27815;43.410;11.852;2023-05-10T12:16:56;2.90;;;1.80;;
42146;SDS011;27815;43.410;11.852;2023-05-10T12:21:02;3.42;;;2.15;;
42146;SDS011;27815;43.410;11.852;2023-05-10T12:29:17;3.15;;;1.88;;
42146;SDS011;27815;43.410;11.852;2023-05-10T12:33:21;2.75;;;1.73;;
42146;SDS011;27815;43.410;11.852;2023-05-10T12:41:30;2.60;;;1.63;;
42146;SDS011;27815;43.410;11.852;2023-05-10T12:45:33;3.08;;;2.25;;
42146;SDS011;27815;43.410;11.852;2023-05-10T12:49:37;3.13;;;2.03;;
42146;SDS011;27815;43.410;11.852;2023-05-10T12:53:40;3.15;;;2.20;;
42146;SDS011;27815;43.410;11.852;2023-05-10T12:57:48;2.92;;;1.77;;
42146;SDS011;27815;43.410;11.852;2023-05-10T13:01:54;1.98;;;1.75;;
42146;SDS011;27815;43.410;11.852;2023-05-10T13:05:58;3.20;;;2.17;;
42146;SDS011;27815;43.410;11.852;2023-05-10T13:10:01;2.72;;;2.50;;
42146;SDS011;27815;43.410;11.852;2023-05-10T13:14:04;2.47;;;2.15;;
42146;SDS011;27815;43.410;11.852;2023-05-10T13:18:07;2.38;;;2.17;;
42146;SDS011;27815;43.410;11.852;2023-05-10T13:22:11;3.25;;;2.45;;
42146;SDS011;27815;43.410;11.852;2023-05-10T13:26:14;3.25;;;2.95;;
42146;SDS011;27815;43.410;11.852;2023-05-10T13:30:17;3.97;;;3.63;;
42146;SDS011;27815;43.410;11.852;2023-05-10T13:34:20;3.78;;;2.97;;
42146;SDS011;27815;43.410;11.852;2023-05-10T13:38:23;3.55;;;3.25;;
42146;SDS011;27815;43.410;11.852;2023-05-10T13:42:26;3.47;;;2.90;;
42146;SDS011;27815;43.410;11.852;2023-05-10T13:46:30;4.32;;;3.92;;
42146;SDS011;27815;43.410;11.852;2023-05-10T13:50:33;5.28;;;4.90;;
42146;SDS011;27815;43.410;11.852;2023-05-10T13:54:36;5.60;;;5.20;;
42146;SDS011;27815;43.410;11.852;2023-05-10T13:58:40;5.63;;;5.20;;
42146;SDS011;27815;43.410;11.852;2023-05-10T14:02:45;5.80;;;5.30;;
42146;SDS011;27815;43.410;11.852;2023-05-10T14:06:48;4.70;;;4.30;;
42146;SDS011;27815;43.410;11.852;2023-05-10T14:10:51;5.80;;;5.40;;
42146;SDS011;27815;43.410;11.852;2023-05-10T14:14:56;5.53;;;5.13;;
42146;SDS011;27815;43.410;11.852;2023-05-10T14:19:14;5.90;;;5.45;;
42146;SDS011;27815;43.410;11.852;2023-05-10T14:23:18;5.05;;;4.65;;
42146;SDS011;27815;43.410;11.852;2023-05-10T14:27:26;5.65;;;5.25;;
42146;SDS011;27815;43.410;11.852;2023-05-10T14:31:43;5.57;;;4.75;;
42146;SDS011;27815;43.410;11.852;2023-05-10T14:35:46;6.35;;;5.75;;
42146;SDS011;27815;43.410;11.852;2023-05-10T14:39:50;4.07;;;3.67;;
42146;SDS011;27815;43.410;11.852;2023-05-10T14:43:53;3.88;;;3.58;;
42146;SDS011;27815;43.410;11.852;2023-05-10T14:47:57;7.43;;;5.25;;
42146;SDS011;27815;43.410;11.852;2023-05-10T14:52:00;7.68;;;5.20;;
42146;SDS011;27815;43.410;11.852;2023-05-10T14:56:03;6.00;;;4.90;;
42146;SDS011;27815;43.410;11.852;2023-05-10T15:00:06;7.55;;;7.03;;
42146;SDS011;27815;43.410;11.852;2023-05-10T15:04:10;8.98;;;8.30;;
42146;SDS011;27815;43.410;11.852;2023-05-10T15:08:16;9.20;;;8.20;;
42146;SDS011;27815;43.410;11.852;2023-05-10T15:12:19;10.02;;;9.43;;
42146;SDS011;27815;43.410;11.852;2023-05-10T15:16:22;8.80;;;8.20;;
42146;SDS011;27815;43.410;11.852;2023-05-10T15:20:26;10.77;;;10.07;;
42146;SDS011;27815;43.410;11.852;2023-05-10T15:24:29;8.95;;;8.35;;
42146;SDS011;27815;43.410;11.852;2023-05-10T15:28:32;10.35;;;9.70;;
42146;SDS011;27815;43.410;11.852;2023-05-10T15:32:36;11.15;;;10.50;;
42146;SDS011;27815;43.410;11.852;2023-05-10T15:36:39;9.15;;;8.50;;
42146;SDS011;27815;43.410;11.852;2023-05-10T15:40:43;9.98;;;9.25;;
42146;SDS011;27815;43.410;11.852;2023-05-10T15:44:50;11.88;;;11.18;;
42146;SDS011;27815;43.410;11.852;2023-05-10T15:48:53;9.98;;;9.30;;
42146;SDS011;27815;43.410;11.852;2023-05-10T15:52:57;11.45;;;10.80;;
42146;SDS011;27815;43.410;11.852;2023-05-10T15:57:00;9.15;;;8.50;;
42146;SDS011;27815;43.410;11.852;2023-05-10T16:01:03;9.50;;;8.80;;
42146;SDS011;27815;43.410;11.852;2023-05-10T16:05:10;9.75;;;9.07;;
42146;SDS011;27815;43.410;11.852;2023-05-10T16:09:18;10.43;;;9.77;;
42146;SDS011;27815;43.410;11.852;2023-05-10T16:13:25;10.32;;;9.73;;
42146;SDS011;27815;43.410;11.852;2023-05-10T16:17:44;8.10;;;7.43;;
42146;SDS011;27815;43.410;11.852;2023-05-10T16:22:00;7.55;;;6.95;;
42146;SDS011;27815;43.410;11.852;2023-05-10T16:26:03;10.13;;;9.43;;
42146;SDS011;27815;43.410;11.852;2023-05-10T16:30:07;7.60;;;6.95;;
42146;SDS011;27815;43.410;11.852;2023-05-10T16:34:16;8.60;;;7.85;;
42146;SDS011;27815;43.410;11.852;2023-05-10T16:38:19;7.47;;;6.88;;
42146;SDS011;27815;43.410;11.852;2023-05-10T16:42:23;8.18;;;7.57;;
42146;SDS011;27815;43.410;11.852;2023-05-10T16:46:26;8.32;;;7.70;;
42146;SDS011;27815;43.410;11.852;2023-05-10T16:50:29;6.68;;;6.20;;
42146;SDS011;27815;43.410;11.852;2023-05-10T16:54:40;7.40;;;6.80;;
42146;SDS011;27815;43.410;11.852;2023-05-10T16:58:43;7.32;;;6.38;;
42146;SDS011;27815;43.410;11.852;2023-05-10T17:02:48;5.75;;;5.25;;
42146;SDS011;27815;43.410;11.852;2023-05-10T17:06:51;5.18;;;4.63;;
42146;SDS011;27815;43.410;11.852;2023-05-10T17:10:57;4.28;;;3.88;;
42146;SDS011;27815;43.410;11.852;2023-05-10T17:15:04;3.10;;;2.83;;
42146;SDS011;27815;43.410;11.852;2023-05-10T17:19:07;2.78;;;2.60;;
42146;SDS011;27815;43.410;11.852;2023-05-10T17:23:10;3.28;;;2.53;;
42146;SDS011;27815;43.410;11.852;2023-05-10T17:27:14;3.25;;;2.90;;
42146;SDS011;27815;43.410;11.852;2023-05-10T17:31:17;4.80;;;3.88;;
42146;SDS011;27815;43.410;11.852;2023-05-10T17:35:20;3.40;;;3.15;;
42146;SDS011;27815;43.410;11.852;2023-05-10T17:39:24;3.63;;;3.33;;
42146;SDS011;27815;43.410;11.852;2023-05-10T17:43:27;2.47;;;2.28;;
42146;SDS011;27815;43.410;11.852;2023-05-10T17:47:30;2.83;;;2.63;;
42146;SDS011;27815;43.410;11.852;2023-05-10T17:51:33;3.05;;;2.70;;
42146;SDS011;27815;43.410;11.852;2023-05-10T17:55:39;4.20;;;3.45;;
42146;SDS011;27815;43.410;11.852;2023-05-10T17:59:43;3.22;;;2.80;;
42146;SDS011;27815;43.410;11.852;2023-05-10T18:03:48;2.63;;;2.17;;
42146;SDS011;27815;43.410;11.852;2023-05-10T18:07:54;2.92;;;2.13;;
42146;SDS011;27815;43.410;11.852;2023-05-10T18:11:57;4.18;;;2.08;;
42146;SDS011;27815;43.410;11.852;2023-05-10T18:16:00;2.25;;;2.05;;
42146;SDS011;27815;43.410;11.852;2023-05-10T18:20:04;2.03;;;1.83;;
42146;SDS011;27815;43.410;11.852;2023-05-10T18:24:08;1.80;;;1.67;;
42146;SDS011;27815;43.410;11.852;2023-05-10T18:28:11;1.65;;;1.55;;
42146;SDS011;27815;43.410;11.852;2023-05-10T18:32:14;2.17;;;1.92;;
42146;SDS011;27815;43.410;11.852;2023-05-10T18:36:19;1.58;;;1.48;;
42146;SDS011;27815;43.410;11.852;2023-05-10T18:40:37;3.25;;;1.77;;
42146;SDS011;27815;43.410;11.852;2023-05-10T18:44:41;2.33;;;1.73;;
42146;SDS011;27815;43.410;11.852;2023-05-10T18:48:44;1.65;;;1.55;;
42146;SDS011;27815;43.410;11.852;2023-05-10T18:52:49;2.95;;;1.58;;
42146;SDS011;27815;43.410;11.852;2023-05-10T18:56:52;3.08;;;1.77;;
42146;SDS011;27815;43.410;11.852;2023-05-10T19:00:55;3.85;;;1.88;;
42146;SDS011;27815;43.410;11.852;2023-05-10T19:05:12;1.77;;;1.60;;
42146;SDS011;27815;43.410;11.852;2023-05-10T19:09:19;2.95;;;1.92;;
42146;SDS011;27815;43.410;11.852;2023-05-10T19:13:37;2.92;;;1.98;;
42146;SDS011;27815;43.410;11.852;2023-05-10T19:17:42;2.80;;;2.03;;
42146;SDS011;27815;43.410;11.852;2023-05-10T19:22:01;2.10;;;1.90;;
42146;SDS011;27815;43.410;11.852;2023-05-10T19:26:05;3.05;;;1.85;;
42146;SDS011;27815;43.410;11.852;2023-05-10T19:30:23;2.53;;;1.90;;
42146;SDS011;27815;43.410;11.852;2023-05-10T19:35:01;2.60;;;1.67;;
42146;SDS011;27815;43.410;11.852;2023-05-10T19:39:05;2.28;;;1.83;;
42146;SDS011;27815;43.410;11.852;2023-05-10T19:43:13;3.05;;;2.20;;
42146;SDS011;27815;43.410;11.852;2023-05-10T19:47:18;5.75;;;2.28;;
42146;SDS011;27815;43.410;11.852;2023-05-10T19:51:25;2.88;;;2.00;;
42146;SDS011;27815;43.410;11.852;2023-05-10T19:55:29;2.55;;;1.80;;
42146;SDS011;27815;43.410;11.852;2023-05-10T19:59:34;2.17;;;1.67;;
42146;SDS011;27815;43.410;11.852;2023-05-10T20:03:47;3.03;;;1.30;;
42146;SDS011;27815;43.410;11.852;2023-05-10T20:07:50;2.55;;;1.58;;
42146;SDS011;27815;43.410;11.852;2023-05-10T20:11:56;1.58;;;1.40;;
42146;SDS011;27815;43.410;11.852;2023-05-10T20:16:03;2.03;;;1.60;;
42146;SDS011;27815;43.410;11.852;2023-05-10T20:20:22;2.78;;;1.88;;
42146;SDS011;27815;43.410;11.852;2023-05-10T20:24:29;4.15;;;1.83;;
42146;SDS011;27815;43.410;11.852;2023-05-10T20:28:33;2.83;;;1.70;;
42146;SDS011;27815;43.410;11.852;2023-05-10T20:32:38;2.88;;;1.45;;
42146;SDS011;27815;43.410;11.852;2023-05-10T20:36:44;2.40;;;1.60;;
42146;SDS011;27815;43.410;11.852;2023-05-10T20:40:48;1.73;;;1.50;;
42146;SDS011;27815;43.410;11.852;2023-05-10T20:44:53;2.15;;;1.77;;
42146;SDS011;27815;43.410;11.852;2023-05-10T20:49:00;1.95;;;1.50;;
42146;SDS011;27815;43.410;11.852;2023-05-10T20:53:05;2.05;;;1.55;;
42146;SDS011;27815;43.410;11.852;2023-05-10T20:57:33;1.70;;;1.50;;
42146;SDS011;27815;43.410;11.852;2023-05-10T21:01:36;3.13;;;1.70;;
42146;SDS011;27815;43.410;11.852;2023-05-10T21:05:40;3.00;;;1.90;;
42146;SDS011;27815;43.410;11.852;2023-05-10T21:09:43;3.65;;;1.70;;
42146;SDS011;27815;43.410;11.852;2023-05-10T21:13:55;3.90;;;2.15;;
42146;SDS011;27815;43.410;11.852;2023-05-10T21:18:01;3.15;;;2.00;;
42146;SDS011;27815;43.410;11.852;2023-05-10T21:22:04;2.30;;;1.48;;
42146;SDS011;27815;43.410;11.852;2023-05-10T21:26:08;4.00;;;1.40;;
42146;SDS011;27815;43.410;11.852;2023-05-10T21:30:13;1.42;;;1.33;;
42146;SDS011;27815;43.410;11.852;2023-05-10T21:34:17;1.88;;;1.45;;
42146;SDS011;27815;43.410;11.852;2023-05-10T21:42:29;2.15;;;1.25;;
42146;SDS011;27815;43.410;11.852;2023-05-10T21:46:47;2.47;;;1.55;;
42146;SDS011;27815;43.410;11.852;2023-05-10T21:54:58;1.77;;;1.40;;
42146;SDS011;27815;43.410;11.852;2023-05-10T21:59:05;2.25;;;1.40;;
42146;SDS011;27815;43.410;11.852;2023-05-10T22:03:08;3.05;;;1.60;;
42146;SDS011;27815;43.410;11.852;2023-05-10T22:07:11;2.72;;;1.60;;
42146;SDS011;27815;43.410;11.852;2023-05-10T22:11:14;2.67;;;1.42;;
42146;SDS011;27815;43.410;11.852;2023-05-10T22:15:18;2.45;;;1.77;;
42146;SDS011;27815;43.410;11.852;2023-05-10T22:19:21;3.97;;;2.25;;
42146;SDS011;27815;43.410;11.852;2023-05-10T22:23:26;2.83;;;1.85;;
42146;SDS011;27815;43.410;11.852;2023-05-10T22:27:30;2.83;;;1.75;;
42146;SDS011;27815;43.410;11.852;2023-05-10T22:31:33;2.05;;;1.55;;
42146;SDS011;27815;43.410;11.852;2023-05-10T22:35:37;3.08;;;1.70;;
42146;SDS011;27815;43.410;11.852;2023-05-10T22:39:40;4.35;;;1.52;;
42146;SDS011;27815;43.410;11.852;2023-05-10T22:43:43;2.03;;;1.67;;
42146;SDS011;27815;43.410;11.852;2023-05-10T22:47:46;2.08;;;1.50;;
42146;SDS011;27815;43.410;11.852;2023-05-10T22:51:56;1.92;;;1.38;;
42146;SDS011;27815;43.410;11.852;2023-05-10T22:56:03;1.95;;;1.58;;
42146;SDS011;27815;43.410;11.852;2023-05-10T23:00:09;2.47;;;1.40;;
42146;SDS011;27815;43.410;11.852;2023-05-10T23:04:12;1.63;;;1.20;;
42146;SDS011;27815;43.410;11.852;2023-05-10T23:12:21;1.58;;;1.10;;
42146;SDS011;27815;43.410;11.852;2023-05-10T23:16:25;1.42;;;1.17;;
42146;SDS011;27815;43.410;11.852;2023-05-10T23:20:28;1.10;;;0.90;;
42146;SDS011;27815;43.410;11.852;2023-05-10T23:24:31;1.13;;;1.00;;
42146;SDS011;27815;43.410;11.852;2023-05-10T23:28:34;1.15;;;1.00;;
42146;SDS011;27815;43.410;11.852;2023-05-10T23:32:38;1.33;;;1.02;;
42146;SDS011;27815;43.410;11.852;2023-05-10T23:36:43;1.10;;;1.00;;
42146;SDS011;27815;43.410;11.852;2023-05-10T23:41:02;1.35;;;1.10;;
42146;SDS011;27815;43.410;11.852;2023-05-10T23:45:06;1.00;;;0.90;;
42146;SDS011;27815;43.410;11.852;2023-05-10T23:49:10;1.30;;;1.02;;
42146;SDS011;27815;43.410;11.852;2023-05-10T23:53:22;1.42;;;1.10;;
42146;SDS011;27815;43.410;11.852;2023-05-10T23:57:27;1.25;;;0.90;;
